Archer, Florida
Current Conditions -  °F | °C
As of 12:53 PM on Thursday 27 Nov 2014 (Local Time) from KGNV Reporting Station
Clear Clear  
Wind Chill: 62°   Ceiling: Unl
Heat Index: 62°   Visibility: 10mi
Dew Point: 35°   Wind: 10mph
Humidity: 37%   Direction: 310°NW
Pressure: 30.23"   Gusts: NA
Location:  29.53°N, 82.52°W
Report Text: KGNV 271753Z 31009KT 10SM CLR 17/02 A3023 RMK AO2 SLP238 T01670017 10172 20044 58019
Loading
Personal Weather Stations






























Interactive Weather Map New forecast layout! Learn more

10-Day Weather Forecast

Advertisements
Track Severe Weather on mobile